Grass Rope, South Dakota
Current Conditions -  °F | °C
As of 1:15 PM on Monday 22 Dec 2014 (Local Time) from K9V9 Reporting Station
Overcast Overcast  
Wind Chill: 27°   Ceiling: 1500
Heat Index: 35°   Visibility: 10mi
Dew Point: 32°   Wind: 10mph
Humidity: 90%   Direction: 290°WNW
Pressure: 29.43"   Gusts: NA
Location:  43.8324°N, 99.5368°W
Report Text: K9V9 221915Z AUTO 29009KT 10SM OVC015 02/00 A2943 RMK AO2 T00170002
Loading
Personal Weather Stations






























Interactive Weather Map New forecast layout! Learn more

10-Day Weather Forecast

Advertisements
Track Severe Weather on mobile